Overview Statistics Trail Chart Weather Telemetry Raw packets
 

This is the latest recevied weather packets stored in our database for station/object K8RRT. If no packets are shown the sender has not sent any weather packets the latest 10 day(s).

<< 8 9 10 11 12 13 14 >>
Time Temp. Humidity Pressure Rain* Wind** Luminosity Snow
1788557109 27.22° C 88% 1011.2 hPa 1.78 mm - 277 W/m² -
1788556804 26.67° C 88% 1011.6 hPa 3.05 mm - 383 W/m² -
1788556498 27.78° C 88% 1011.5 hPa 3.05 mm - 112 W/m² -
1788556194 27.78° C 85% 1011.4 hPa 1.78 mm - 65 W/m² -
1788555893 28.89° C 82% 1011.4 hPa 0 mm - 55 W/m² -
1788555589 30° C 76% 1011.7 hPa 0 mm - 78 W/m² -
1788555284 30° C 77% 1011.6 hPa 0 mm - 122 W/m² -
1788554982 30° C 77% 1011.7 hPa 0 mm - 256 W/m² -
1788554677 29.44° C 78% 1011.2 hPa 0 mm - 101 W/m² -
1788554373 29.44° C 78% 1011.2 hPa 0 mm - 107 W/m² -
1788554069 30° C 77% 1010.9 hPa 0 mm - 129 W/m² -
1788553765 30° C 77% 1010.6 hPa 0 mm - 136 W/m² -
1788553461 30° C 77% 1010.4 hPa 0 mm - 120 W/m² -
1788553156 30° C 75% 1010.8 hPa 0 mm - 110 W/m² -
1788552851 30° C 76% 1011 hPa 0 mm - 114 W/m² -
1788552547 30° C 76% 1011.1 hPa 0 mm - 142 W/m² -
1788552245 30.56° C 74% 1011.1 hPa 0 mm - 150 W/m² -
1788551940 30.56° C 73% 1011 hPa 0 mm - 159 W/m² -
1788551638 31.11° C 72% 1011.1 hPa 0 mm - 173 W/m² -
1788551333 31.11° C 70% 1011.4 hPa 0 mm - 188 W/m² -
1788551032 31.11° C 71% 1011.5 hPa 0 mm - 225 W/m² -
1788550728 31.67° C 71% 1011.3 hPa 0 mm - 147 W/m² -
1788550423 31.67° C 70% 1011 hPa 0 mm - 186 W/m² -
1788550118 33.33° C 67% 1010.9 hPa 0 mm - 212 W/m² -
1788549813 32.78° C 66% 1011.2 hPa 0 mm - 512 W/m² -

* Rain latest hour (hover to see other rain measurements)
** Current wind speed in m/s (hover to see current wind gust speed)